createdAt,value
2022-08-03T00:01:30.284Z,99011.47
2022-08-03T00:04:34.213Z,99013.84
2022-08-03T00:07:36.097Z,99010.34
2022-08-03T00:10:38.457Z,99007.72
2022-08-03T00:13:40.148Z,99004.97
2022-08-03T00:16:41.797Z,99003.00
2022-08-03T00:19:43.467Z,99015.25
2022-08-03T00:22:45.154Z,99010.63
2022-08-03T00:25:46.820Z,99009.53
2022-08-03T00:28:49.865Z,99006.81
2022-08-03T00:31:59.156Z,99009.22
2022-08-03T00:35:08.048Z,99011.66
2022-08-03T00:38:11.533Z,99013.25
2022-08-03T00:41:13.228Z,99006.19
2022-08-03T00:44:17.398Z,99006.97
2022-08-03T00:47:19.202Z,99008.53
2022-08-03T00:50:23.081Z,98994.03
2022-08-03T00:53:25.598Z,99005.78
2022-08-03T00:56:27.575Z,98996.78
2022-08-03T00:59:30.256Z,98996.44
2022-08-03T01:02:32.157Z,98990.53
2022-08-03T01:05:45.601Z,99003.88
2022-08-03T01:08:58.167Z,98990.16
2022-08-03T01:12:18.999Z,98993.75
2022-08-03T01:15:36.271Z,98991.41
2022-08-03T01:19:09.030Z,98990.19
2022-08-03T01:22:19.313Z,98985.91
2022-08-03T01:25:37.726Z,98986.28
2022-08-03T01:28:58.355Z,98982.78
2022-08-03T01:33:03.007Z,98978.06
2022-08-03T01:35:39.310Z,98978.06
2022-08-03T01:39:04.175Z,98980.78
2022-08-03T01:42:08.993Z,98976.88
2022-08-03T01:45:13.299Z,98985.16
2022-08-03T01:48:17.724Z,98969.88
2022-08-03T01:51:21.041Z,98974.97
2022-08-03T01:54:24.790Z,98971.06
2022-08-03T01:57:29.505Z,98977.72
2022-08-03T02:00:33.242Z,98975.78
2022-08-03T02:03:59.695Z,98961.31
2022-08-03T02:07:03.494Z,98965.63
2022-08-03T02:10:07.189Z,98977.34
2022-08-03T02:13:10.742Z,98966.78
2022-08-03T02:16:14.074Z,98960.91
2022-08-03T02:19:17.425Z,98969.91
2022-08-03T02:22:19.148Z,98963.25
2022-08-03T02:25:20.949Z,98969.94
2022-08-03T02:28:32.631Z,98969.91
2022-08-03T02:31:37.061Z,98960.13
2022-08-03T02:34:42.058Z,98960.50
2022-08-03T02:37:50.532Z,98963.25
2022-08-03T02:40:55.816Z,98964.81
2022-08-03T02:44:06.056Z,98955.41
2022-08-03T02:47:12.586Z,98960.13
2022-08-03T02:50:16.426Z,98955.06
2022-08-03T02:53:19.484Z,98958.16
2022-08-03T02:56:24.175Z,98959.34
2022-08-03T02:59:28.344Z,98961.31
2022-08-03T03:02:30.533Z,98955.81
2022-08-03T03:05:51.852Z,98958.16
2022-08-03T03:08:59.644Z,98947.22
2022-08-03T03:12:03.057Z,98950.34
2022-08-03T03:15:08.387Z,98955.03
2022-08-03T03:18:11.034Z,98941.69
2022-08-03T03:21:14.458Z,98953.09
2022-08-03T03:24:17.198Z,98956.59
2022-08-03T03:27:19.197Z,98960.91
2022-08-03T03:30:22.806Z,98944.84
2022-08-03T03:33:24.944Z,98962.09
2022-08-03T03:36:26.627Z,98951.50
2022-08-03T03:39:28.344Z,98962.47
2022-08-03T03:42:30.309Z,98958.50
2022-08-03T03:45:34.489Z,98960.44
2022-08-03T03:48:36.360Z,98961.19
2022-08-03T03:51:38.128Z,98972.56
2022-08-03T03:54:44.742Z,98965.09
2022-08-03T03:57:46.552Z,98967.47
2022-08-03T04:00:48.324Z,98965.91
2022-08-03T04:03:50.056Z,98964.72
2022-08-03T04:07:10.447Z,98972.16
2022-08-03T04:10:42.853Z,98963.91
2022-08-03T04:13:48.962Z,98968.59
2022-08-03T04:16:55.331Z,98977.22
2022-08-03T04:19:58.934Z,98970.56
2022-08-03T04:23:02.215Z,98964.25
2022-08-03T04:26:09.646Z,98971.69
2022-08-03T04:29:13.427Z,98980.31
2022-08-03T04:32:16.104Z,98975.22
2022-08-03T04:35:19.490Z,98980.34
2022-08-03T04:38:22.652Z,98978.78
2022-08-03T04:41:26.737Z,98983.06
2022-08-03T04:44:29.873Z,98984.25
2022-08-03T04:47:33.719Z,98977.97
2022-08-03T04:50:36.010Z,98982.28
2022-08-03T04:53:41.133Z,98988.19
2022-08-03T04:56:43.871Z,98980.31
2022-08-03T04:59:45.605Z,98995.63
2022-08-03T05:02:47.458Z,98999.56
2022-08-03T05:05:49.876Z,99000.72
2022-08-03T05:08:52.995Z,99000.72
2022-08-03T05:11:55.526Z,98999.19
2022-08-03T05:14:57.100Z,99008.56
2022-08-03T05:17:58.768Z,99005.44
2022-08-03T05:21:01.238Z,99009.00
2022-08-03T05:24:03.127Z,99007.81
2022-08-03T05:27:05.557Z,99017.22
2022-08-03T05:30:27.157Z,99015.66
2022-08-03T05:33:30.738Z,99019.63
2022-08-03T05:36:32.486Z,99014.50
2022-08-03T05:39:34.730Z,99021.19
2022-08-03T05:42:39.762Z,99012.22
2022-08-03T05:45:41.743Z,99013.00
2022-08-03T05:48:44.085Z,99015.34
2022-08-03T05:51:46.200Z,99018.09
2022-08-03T05:54:56.340Z,99013.41
2022-08-03T05:57:59.466Z,99020.44
2022-08-03T06:01:01.133Z,99016.16
2022-08-03T06:04:02.846Z,99018.50
2022-08-03T06:07:04.592Z,99015.38
2022-08-03T06:10:36.658Z,99021.66
2022-08-03T06:13:28.888Z,99014.22
2022-08-03T06:16:30.664Z,99018.53
2022-08-03T06:19:32.368Z,99016.56
2022-08-03T06:22:34.029Z,99025.19
2022-08-03T06:25:35.738Z,99029.50
2022-08-03T06:28:52.567Z,99029.53
2022-08-03T06:31:55.510Z,99029.16
2022-08-03T06:34:57.096Z,99038.53
2022-08-03T06:37:59.237Z,99038.09
2022-08-03T06:41:02.007Z,99036.13
2022-08-03T06:44:04.523Z,99034.91
2022-08-03T06:47:06.577Z,99025.03
2022-08-03T06:50:17.066Z,99028.56
2022-08-03T06:53:21.519Z,99039.16
2022-08-03T06:56:23.300Z,99026.56
2022-08-03T07:00:09.049Z,99041.03
2022-08-03T07:02:47.047Z,99047.19
2022-08-03T07:05:49.289Z,99047.41
2022-08-03T07:08:53.670Z,99042.13
2022-08-03T07:11:57.304Z,99044.66
2022-08-03T07:15:02.217Z,99033.47
2022-08-03T07:18:04.666Z,99041.16
2022-08-03T07:21:08.072Z,99040.03
2022-08-03T07:24:09.898Z,99034.19
2022-08-03T07:27:11.861Z,99040.66
2022-08-03T07:30:15.439Z,99034.63
2022-08-03T07:33:17.271Z,99034.31
2022-08-03T07:36:19.310Z,99034.53
2022-08-03T07:39:21.111Z,99037.28
2022-08-03T07:42:24.100Z,99039.41
2022-08-03T07:45:26.865Z,99031.94
2022-08-03T07:48:28.742Z,99032.81
2022-08-03T07:51:30.527Z,99028.16
2022-08-03T07:54:32.325Z,99034.00
2022-08-03T07:57:34.542Z,99020.44
2022-08-03T08:00:36.990Z,99028.22
2022-08-03T08:03:41.971Z,99024.31
2022-08-03T08:06:54.919Z,99032.84
2022-08-03T08:09:56.614Z,99037.50
2022-08-03T08:12:58.684Z,99022.31
2022-08-03T08:16:00.876Z,99020.16
2022-08-03T08:19:02.645Z,99015.28
2022-08-03T08:22:04.668Z,99023.94
2022-08-03T08:25:07.708Z,99031.31
2022-08-03T08:28:29.927Z,99020.97
2022-08-03T08:31:31.184Z,99019.75
2022-08-03T08:34:32.986Z,99043.72
2022-08-03T08:37:36.004Z,99031.91
2022-08-03T08:40:37.979Z,99031.22
2022-08-03T08:43:39.631Z,99024.78
2022-08-03T08:46:41.356Z,99032.94
2022-08-03T08:50:03.877Z,99020.66
2022-08-03T08:53:10.730Z,99032.22
2022-08-03T08:56:22.953Z,99024.69
2022-08-03T08:59:25.251Z,99026.88
2022-08-03T09:02:30.601Z,99009.22
2022-08-03T09:05:54.996Z,99024.78
2022-08-03T09:08:54.730Z,99023.41
2022-08-03T09:12:13.758Z,99020.66
2022-08-03T09:15:19.477Z,99026.94
2022-08-03T09:18:32.477Z,99022.75
2022-08-03T09:21:35.082Z,99013.75
2022-08-03T09:24:41.489Z,99008.00
2022-08-03T09:27:45.570Z,99009.81
2022-08-03T09:30:59.860Z,99001.63
2022-08-03T09:34:12.775Z,99007.66
2022-08-03T09:37:19.462Z,99013.84
2022-08-03T09:40:36.718Z,99012.09
2022-08-03T09:43:48.197Z,99014.81
2022-08-03T09:46:57.293Z,99003.69
2022-08-03T09:50:04.651Z,99005.41
2022-08-03T09:53:06.623Z,99005.59
2022-08-03T09:56:33.639Z,99003.06
2022-08-03T09:59:32.374Z,99001.81
2022-08-03T10:02:35.206Z,98999.53
2022-08-03T10:05:38.384Z,98991.72
2022-08-03T10:08:40.082Z,98987.56
2022-08-03T10:11:43.073Z,98981.59
2022-08-03T10:14:46.961Z,98983.22
2022-08-03T10:17:48.895Z,98977.59
2022-08-03T10:20:56.356Z,98981.69
2022-08-03T10:23:58.322Z,98972.00
2022-08-03T10:27:04.392Z,98974.91
2022-08-03T10:30:09.023Z,98974.41
2022-08-03T10:33:49.635Z,98974.16
2022-08-03T10:36:41.482Z,98975.13
2022-08-03T10:39:53.537Z,98969.38
2022-08-03T10:42:59.652Z,98967.06
2022-08-03T10:46:03.444Z,98964.09
2022-08-03T10:49:06.616Z,98965.44
2022-08-03T10:52:13.320Z,98954.59
2022-08-03T10:55:54.942Z,98943.38
2022-08-03T10:58:57.420Z,98948.91
2022-08-03T11:02:01.058Z,98946.56
2022-08-03T11:05:35.115Z,98938.13
2022-08-03T11:08:37.639Z,98943.25
2022-08-03T11:11:43.492Z,98926.97
2022-08-03T11:14:48.884Z,98910.06
2022-08-03T11:18:11.114Z,98928.22
2022-08-03T11:21:13.228Z,98929.00
2022-08-03T11:24:36.967Z,98928.81
2022-08-03T11:27:38.884Z,98926.50
2022-08-03T11:30:41.250Z,98917.44
2022-08-03T11:34:02.828Z,98924.00
2022-08-03T11:37:28.705Z,98919.59
2022-08-03T11:40:49.059Z,98916.75
2022-08-03T11:43:50.723Z,98916.91
2022-08-03T11:46:52.437Z,98908.56
2022-08-03T11:49:57.420Z,98911.22
2022-08-03T11:52:59.190Z,98913.53
2022-08-03T11:56:02.324Z,98918.28
2022-08-03T11:59:19.924Z,98913.91
2022-08-03T12:02:23.214Z,98904.63
2022-08-03T12:05:36.406Z,98902.06
2022-08-03T12:08:40.803Z,98895.84
2022-08-03T12:11:51.072Z,98886.22
2022-08-03T12:15:05.837Z,98897.06
2022-08-03T12:18:16.552Z,98893.78
2022-08-03T12:21:18.935Z,98892.56
2022-08-03T12:24:20.502Z,98895.06
2022-08-03T12:27:27.850Z,98883.81
2022-08-03T12:30:30.100Z,98873.16
2022-08-03T12:33:33.432Z,98864.41
2022-08-03T12:36:36.083Z,98866.91
2022-08-03T12:39:37.754Z,98860.59
2022-08-03T12:42:59.829Z,98867.56
2022-08-03T12:46:17.139Z,98857.59
2022-08-03T12:49:19.720Z,98854.50
2022-08-03T12:52:22.989Z,98843.25
2022-08-03T12:55:25.374Z,98848.34
2022-08-03T12:58:36.026Z,98848.09
2022-08-03T13:01:37.891Z,98840.91
2022-08-03T13:04:56.653Z,98840.47
2022-08-03T13:07:58.790Z,98842.88
2022-08-03T13:11:19.189Z,98842.41
2022-08-03T13:14:21.003Z,98834.81
2022-08-03T13:17:22.901Z,98837.16
2022-08-03T13:20:24.914Z,98829.44
2022-08-03T13:23:28.840Z,98842.94
2022-08-03T13:26:30.563Z,98836.81
2022-08-03T13:29:32.199Z,98827.28
2022-08-03T13:32:34.270Z,98821.44
2022-08-03T13:35:36.030Z,98824.25
2022-08-03T13:38:37.814Z,98826.25
2022-08-03T13:41:39.599Z,98827.22
2022-08-03T13:44:41.413Z,98815.25
2022-08-03T13:47:43.160Z,98817.28
2022-08-03T13:50:45.155Z,98813.13
2022-08-03T13:53:46.939Z,98800.94
2022-08-03T13:56:53.051Z,98797.63
2022-08-03T13:59:54.933Z,98791.63
2022-08-03T14:03:17.379Z,98797.84
2022-08-03T14:06:19.279Z,98796.63
2022-08-03T14:09:21.130Z,98789.34
2022-08-03T14:12:24.942Z,98795.25
2022-08-03T14:15:28.553Z,98792.75
2022-08-03T14:18:34.904Z,98793.41
2022-08-03T14:21:41.878Z,98783.13
2022-08-03T14:24:43.614Z,98793.22
2022-08-03T14:27:45.362Z,98791.69
2022-08-03T14:30:47.931Z,98795.13
2022-08-03T14:33:49.634Z,98795.66
2022-08-03T14:36:51.444Z,98781.63
2022-08-03T14:40:00.952Z,98786.25
2022-08-03T14:43:03.310Z,98782.59
2022-08-03T14:46:05.031Z,98768.50
2022-08-03T14:50:38.081Z,98776.63
2022-08-03T14:52:28.478Z,98776.13
2022-08-03T14:55:38.964Z,98777.81
2022-08-03T14:58:51.862Z,98767.72
2022-08-03T15:02:03.287Z,98767.84
2022-08-03T15:05:07.698Z,98758.88
2022-08-03T15:08:09.406Z,98753.72
2022-08-03T15:11:11.183Z,98748.50
2022-08-03T15:14:13.491Z,98747.38
2022-08-03T15:17:16.583Z,98739.09
2022-08-03T15:20:28.967Z,98732.56
2022-08-03T15:23:38.312Z,98727.34
2022-08-03T15:26:41.799Z,98732.75
2022-08-03T15:30:07.359Z,98730.69
2022-08-03T15:33:06.154Z,98720.59
2022-08-03T15:36:07.914Z,98710.25
2022-08-03T15:39:09.660Z,98712.50
2022-08-03T15:42:11.718Z,98700.47
2022-08-03T15:45:13.512Z,98701.00
2022-08-03T15:48:20.194Z,98697.72
2022-08-03T15:51:28.389Z,98712.34
2022-08-03T15:54:30.100Z,98694.47
2022-08-03T15:57:31.826Z,98702.94
2022-08-03T16:00:34.021Z,98686.97
2022-08-03T16:03:35.941Z,98685.19
2022-08-03T16:06:38.063Z,98689.09
2022-08-03T16:09:42.272Z,98683.41
2022-08-03T16:12:45.832Z,98684.63
2022-08-03T16:15:48.530Z,98675.81
2022-08-03T16:18:50.225Z,98677.69
2022-08-03T16:21:51.843Z,98678.78
2022-08-03T16:24:55.059Z,98678.81
2022-08-03T16:28:07.625Z,98677.94
2022-08-03T16:31:14.527Z,98671.47
2022-08-03T16:34:16.249Z,98661.41
2022-08-03T16:37:37.748Z,98668.81
2022-08-03T16:40:39.740Z,98657.88
2022-08-03T16:43:41.500Z,98663.28
2022-08-03T16:46:44.800Z,98653.44
2022-08-03T16:49:54.467Z,98659.88
2022-08-03T16:52:57.954Z,98660.16
2022-08-03T16:56:00.142Z,98654.97
2022-08-03T16:59:02.862Z,98649.88
2022-08-03T17:02:10.149Z,98646.19
2022-08-03T17:05:12.683Z,98661.78
2022-08-03T17:08:16.041Z,98670.69
2022-08-03T17:11:18.548Z,98661.00
2022-08-03T17:14:22.699Z,98652.81
2022-08-03T17:17:30.351Z,98664.09
2022-08-03T17:20:50.940Z,98661.81
2022-08-03T17:24:02.675Z,98659.28
2022-08-03T17:27:09.286Z,98655.97
2022-08-03T17:30:50.641Z,98647.00
2022-08-03T17:33:54.652Z,98653.44
2022-08-03T17:37:05.584Z,98653.13
2022-08-03T17:40:08.347Z,98661.28
2022-08-03T17:44:13.677Z,98656.69
2022-08-03T17:46:31.826Z,98662.84
2022-08-03T17:49:40.097Z,98668.50
2022-08-03T17:52:48.389Z,98665.13
2022-08-03T17:56:04.195Z,98667.28
2022-08-03T17:59:16.421Z,98664.00
2022-08-03T18:03:17.747Z,98664.78
2022-08-03T18:06:28.906Z,98666.34
2022-08-03T18:10:03.526Z,98668.41
2022-08-03T18:13:02.875Z,98673.66
2022-08-03T18:16:06.815Z,98681.25
2022-08-03T18:19:13.761Z,98677.28
2022-08-03T18:22:20.191Z,98673.13
2022-08-03T18:25:45.618Z,98671.41
2022-08-03T18:28:48.436Z,98677.97
2022-08-03T18:32:02.470Z,98674.63
2022-08-03T18:35:06.311Z,98667.63
2022-08-03T18:38:16.770Z,98670.88
2022-08-03T18:41:33.577Z,98677.75
2022-08-03T18:44:46.476Z,98680.09
2022-08-03T18:47:59.004Z,98683.97
2022-08-03T18:51:28.922Z,98688.41
2022-08-03T18:55:03.841Z,98680.75
2022-08-03T18:58:15.916Z,98682.72
2022-08-03T19:02:00.387Z,98690.34
2022-08-03T19:04:53.841Z,98685.78
2022-08-03T19:07:59.571Z,98704.72
2022-08-03T19:11:06.123Z,98701.22
2022-08-03T19:14:11.483Z,98709.47
2022-08-03T19:17:14.274Z,98703.44
2022-08-03T19:20:25.984Z,98710.28
2022-08-03T19:23:30.784Z,98712.94
2022-08-03T19:26:38.502Z,98709.19
2022-08-03T19:29:58.678Z,98718.63
2022-08-03T19:33:09.195Z,98722.22
2022-08-03T19:36:13.615Z,98719.25
2022-08-03T19:39:15.616Z,98722.19
2022-08-03T19:42:28.695Z,98719.84
2022-08-03T19:46:04.652Z,98716.69
2022-08-03T19:49:04.895Z,98721.88
2022-08-03T19:52:20.881Z,98722.66
2022-08-03T19:55:28.782Z,98722.50
2022-08-03T19:58:35.479Z,98720.91
2022-08-03T20:01:50.924Z,98715.19
2022-08-03T20:04:53.206Z,98717.69
2022-08-03T20:07:58.952Z,98723.69
2022-08-03T20:11:00.939Z,98715.31
2022-08-03T20:14:04.914Z,98714.34
2022-08-03T20:17:09.305Z,98709.97
2022-08-03T20:20:11.484Z,98712.69
2022-08-03T20:23:19.289Z,98699.41
2022-08-03T20:26:23.961Z,98702.13
2022-08-03T20:30:05.418Z,98715.28
2022-08-03T20:32:52.878Z,98704.31
2022-08-03T20:35:54.702Z,98709.84
2022-08-03T20:42:21.444Z,98706.34
2022-08-03T20:46:01.137Z,98702.16
2022-08-03T20:48:48.798Z,98698.94
2022-08-03T20:51:53.099Z,98696.94
2022-08-03T20:54:55.906Z,98695.69
2022-08-03T20:57:59.427Z,98694.63
2022-08-03T21:01:02.758Z,98692.13
2022-08-03T21:04:07.459Z,98695.50
2022-08-03T21:07:17.916Z,98697.22
2022-08-03T21:10:30.091Z,98691.78
2022-08-03T21:13:13.534Z,98704.53
2022-08-03T21:13:56.858Z,98701.50
2022-08-03T21:17:01.657Z,98681.06
2022-08-03T21:20:07.594Z,98692.38
2022-08-03T21:23:11.086Z,98684.16
2022-08-03T21:26:34.186Z,98679.13
2022-08-03T21:29:53.073Z,98669.69
2022-08-03T21:32:57.661Z,98675.97
2022-08-03T21:36:00.276Z,98659.22
2022-08-03T21:39:05.939Z,98661.09
2022-08-03T21:42:08.644Z,98649.94
2022-08-03T21:45:17.129Z,98656.78
2022-08-03T21:48:21.637Z,98666.09
2022-08-03T21:51:25.094Z,98663.78
2022-08-03T21:54:33.834Z,98663.88
2022-08-03T21:57:37.686Z,98663.94
2022-08-03T22:00:43.442Z,98658.13
2022-08-03T22:03:53.177Z,98656.34
2022-08-03T22:06:56.013Z,98664.47
2022-08-03T22:09:59.884Z,98660.41
2022-08-03T22:13:01.572Z,98661.50
2022-08-03T22:16:03.403Z,98660.78
2022-08-03T22:19:05.156Z,98664.78
2022-08-03T22:22:09.346Z,98664.06
2022-08-03T22:25:15.926Z,98664.47
2022-08-03T22:28:18.380Z,98663.78
2022-08-03T22:31:30.768Z,98664.91
2022-08-03T22:34:45.189Z,98666.03
2022-08-03T22:37:49.670Z,98672.13
2022-08-03T22:40:52.445Z,98671.59
2022-08-03T22:43:54.732Z,98680.78
2022-08-03T22:46:56.963Z,98670.34
2022-08-03T22:50:32.344Z,98669.88
2022-08-03T22:53:22.038Z,98677.78
2022-08-03T22:56:24.031Z,98682.66
2022-08-03T22:59:41.200Z,98685.50
2022-08-03T23:02:45.596Z,98684.53
2022-08-03T23:06:00.956Z,98680.75
2022-08-03T23:09:07.366Z,98676.34
2022-08-03T23:12:11.382Z,98672.03
2022-08-03T23:15:13.998Z,98687.53
2022-08-03T23:18:16.358Z,98686.53
2022-08-03T23:21:20.173Z,98686.81
2022-08-03T23:24:42.097Z,98699.78
2022-08-03T23:27:45.351Z,98697.41
2022-08-03T23:30:49.886Z,98695.09
2022-08-03T23:34:16.790Z,98693.28
2022-08-03T23:37:20.259Z,98696.63
2022-08-03T23:40:29.512Z,98697.31
2022-08-03T23:43:51.011Z,98693.88
2022-08-03T23:46:54.179Z,98691.50
2022-08-03T23:49:56.000Z,98695.56
2022-08-03T23:53:25.755Z,98694.59
2022-08-03T23:56:32.195Z,98698.09
2022-08-03T23:59:57.041Z,98687.38
